Aviosuperficie Acqui Terme

IT-0038 · Piémont, Italie

METAR anciennes IT-0038 · Aviosuperficie Acqui Terme

Tu vois ci-dessous les METAR des derniers jours. Sélectionne une année pour parcourir les METAR plus anciens, à partir de l'année 2007.

30 mai 2024

Temps Code Temps Temp. Vue Base cloud Vent METAR/SPECI
07:20
M
20 °C 10 km+ 2.200 ft 080° 080° 5 kt METAR LIMJ 300520Z 08005KT 050V120 9999 BKN022 20/16 Q1008
06:50
V
19 °C 10 km+ - 090° 090° 3 kt METAR LIMJ 300450Z 09003KT 9999 SCT014 19/16 Q1008
06:20
V
19 °C 10 km+ - 070° 070° 4 kt METAR LIMJ 300420Z 07004KT 040V110 9999 SCT015 19/16 Q1008
05:50
V
19 °C 10 km+ - 070° 070° 5 kt METAR LIMJ 300350Z 07005KT 9999 SCT015 19/16 Q1008
05:20
V
19 °C 10 km+ - 070° 070° 4 kt METAR LIMJ 300320Z 07004KT 030V090 9999 SCT014 SCT030 19/16 Q1008
04:50
V
20 °C 10 km+ - 030° 030° 3 kt METAR LIMJ 300250Z 03003KT 9999 FEW014 SCT028 20/17 Q1009
04:20
V
19 °C 10 km+ - Var Var 2 kt METAR LIMJ 300220Z VRB02KT 9999 SCT014 19/16 Q1009
03:50
V
19 °C 10 km+ - 070° 070° 3 kt METAR LIMJ 300150Z 07003KT 010V120 9999 SCT014 SCT050 19/16 Q1009
03:20
V
19 °C 10 km+ - Var Var 2 kt METAR LIMJ 300120Z VRB02KT 9999 SCT014 19/16 Q1009
02:50
V
19 °C 10 km+ - Var Var 2 kt METAR LIMJ 300050Z VRB02KT 9999 SCT018 19/16 Q1009
02:20
V
19 °C 10 km+ - Var Var 2 kt METAR LIMJ 300020Z VRB02KT 9999 FEW014 SCT032 19/16 Q1010
01:50
V
19 °C 10 km+ - Var Var 2 kt METAR LIMJ 292350Z VRB02KT 9999 FEW015 SCT032 19/16 Q1010
01:20
V
19 °C 10 km+ - 040° 040° 3 kt METAR LIMJ 292320Z 04003KT 9999 SCT015 19/16 Q1010
00:50
V
19 °C 10 km+ - 050° 050° 3 kt METAR LIMJ 292250Z 05003KT 9999 SCT015 19/16 Q1011
00:20
V
20 °C 10 km+ - 020° 020° 3 kt METAR LIMJ 292220Z 02003KT 9999 SCT018 20/16 Q1011

29 mai 2024

Temps Code Temps Temp. Vue Base cloud Vent METAR/SPECI
23:50
V
20 °C 10 km+ - 020° 020° 2 kt METAR LIMJ 292150Z 02002KT 9999 SCT018 20/16 Q1011
23:20
V
20 °C 10 km+ - Var Var 2 kt METAR LIMJ 292120Z VRB02KT 9999 SCT015 20/16 Q1011
22:50
V
20 °C 10 km+ - 030° 030° 3 kt METAR LIMJ 292050Z 03003KT 010V090 9999 FEW015 20/16 Q1011
22:20
V
20 °C 10 km+ - Var Var 1 kt METAR LIMJ 292020Z VRB01KT 9999 SCT015 20/17 Q1011
21:50
V
21 °C 10 km+ - Var Var 2 kt METAR LIMJ 291950Z VRB02KT 9999 SCT015 21/17 Q1012
21:20
V
21 °C 10 km+ - 250° 250° 3 kt METAR LIMJ 291920Z 25003KT 9999 FEW018 21/17 Q1011
20:50
V
21 °C 10 km+ - 210° 210° 3 kt METAR LIMJ 291850Z 21003KT 9999 FEW025 21/17 Q1012
20:20
V
21 °C 10 km+ - 200° 200° 3 kt METAR LIMJ 291820Z 20003KT CAVOK 21/16 Q1012
19:50
V
21 °C 10 km+ - 160° 160° 2 kt METAR LIMJ 291750Z 16002KT CAVOK 21/16 Q1012
19:20
V
21 °C 10 km+ - 180° 180° 3 kt METAR LIMJ 291720Z 18003KT 9999 FEW025 21/16 Q1012
18:50
V
21 °C 10 km+ - 170° 170° 3 kt METAR LIMJ 291650Z 17003KT 9999 FEW025 21/16 Q1012
18:20
V
21 °C 10 km+ - 190° 190° 4 kt METAR LIMJ 291620Z 19004KT 9999 FEW025 21/16 Q1012
17:50
V
21 °C 10 km+ - 190° 190° 3 kt METAR LIMJ 291550Z 19003KT 160V220 9999 FEW025 21/16 Q1012
17:20
V
21 °C 10 km+ - 200° 200° 4 kt METAR LIMJ 291520Z 20004KT 9999 FEW025 21/17 Q1012
16:50
V
21 °C 10 km+ - 200° 200° 5 kt METAR LIMJ 291450Z 20005KT 9999 FEW025 21/17 Q1013
16:20
V
21 °C 10 km+ - 210° 210° 5 kt METAR LIMJ 291420Z 21005KT 9999 FEW025 21/17 Q1013
15:50
V
21 °C 10 km+ - 220° 220° 4 kt METAR LIMJ 291350Z 22004KT 9999 FEW025 21/17 Q1013
15:20
V
21 °C 10 km+ - 230° 230° 4 kt METAR LIMJ 291320Z 23004KT 9999 SCT025 21/17 Q1013
14:50
V
21 °C 10 km+ - 230° 230° 6 kt METAR LIMJ 291250Z 23006KT 9999 FEW028 21/17 Q1013
14:20
V
21 °C 10 km+ - 230° 230° 5 kt METAR LIMJ 291220Z 23005KT 9999 FEW028 21/17 Q1014
13:50
V
21 °C 10 km+ - 220° 220° 3 kt METAR LIMJ 291150Z 22003KT 190V250 9999 FEW020 SCT035 21/17 Q1014
13:20
V
21 °C 10 km+ - 230° 230° 4 kt METAR LIMJ 291120Z 23004KT 9999 FEW020 SCT035 21/17 Q1014
12:50
V
21 °C 10 km+ - 230° 230° 4 kt METAR LIMJ 291050Z 23004KT 9999 SCT035 21/16 Q1014
12:20
V
21 °C 10 km+ - 220° 220° 4 kt METAR LIMJ 291020Z 22004KT 9999 FEW025 21/17 Q1014
11:50
V
21 °C 10 km+ - 200° 200° 5 kt METAR LIMJ 290950Z 20005KT 9999 FEW025 21/17 Q1014
11:20
V
21 °C 10 km+ - 160° 160° 4 kt METAR LIMJ 290920Z 16004KT 9999 FEW025 21/17 Q1014
10:50
V
21 °C 10 km+ - 160° 160° 3 kt METAR LIMJ 290850Z 16003KT 9999 FEW015 21/16 Q1015
10:20
V
21 °C 10 km+ - 260° 260° 2 kt METAR LIMJ 290820Z 26002KT 9999 FEW015 21/17 Q1015
09:50
V
21 °C 10 km+ - Var Var 2 kt METAR LIMJ 290750Z VRB02KT 9999 FEW012 21/17 Q1015
09:20
V
21 °C 10 km+ - 130° 130° 2 kt METAR LIMJ 290720Z 13002KT 9999 SCT012 21/17 Q1015
08:50
V
21 °C 10 km+ - 120° 120° 2 kt METAR LIMJ 290650Z 12002KT 9999 FEW012 21/17 Q1015
08:20
V
21 °C 10 km+ - 090° 090° 5 kt METAR LIMJ 290620Z 09005KT CAVOK 21/15 Q1015
07:50
V
19 °C 10 km+ - 080° 080° 7 kt METAR LIMJ 290550Z 08007KT CAVOK 19/14 Q1014
07:20
V
19 °C 10 km+ - 120° 120° 3 kt METAR LIMJ 290520Z 12003KT 090V170 CAVOK 19/14 Q1014
06:50
V
18 °C 10 km+ - Var Var 1 kt METAR LIMJ 290450Z VRB01KT CAVOK 18/14 Q1014
06:20
V
18 °C 10 km+ - Var Var 2 kt METAR LIMJ 290420Z VRB02KT CAVOK 18/14 Q1014
05:50
V
18 °C 10 km+ - 050° 050° 3 kt METAR LIMJ 290350Z 05003KT CAVOK 18/14 Q1014
05:20
V
18 °C 10 km+ - 030° 030° 3 kt METAR LIMJ 290320Z 03003KT CAVOK 18/15 Q1014
04:50
V
18 °C 10 km+ - Var Var 2 kt METAR LIMJ 290250Z VRB02KT CAVOK 18/15 Q1014
04:20
V
18 °C 10 km+ - 360° 360° 4 kt METAR LIMJ 290220Z 36004KT CAVOK 18/15 Q1014
03:50
V
18 °C 10 km+ - Var Var 2 kt METAR LIMJ 290150Z VRB02KT CAVOK 18/15 Q1014
03:20
V
18 °C 10 km+ - 360° 360° 0 kt METAR LIMJ 290120Z 00000KT CAVOK 18/16 Q1014
02:50
V
19 °C 10 km+ - Var Var 1 kt METAR LIMJ 290050Z VRB01KT CAVOK 19/16 Q1014
02:20
V
19 °C 10 km+ - 360° 360° 3 kt METAR LIMJ 290020Z 36003KT CAVOK 19/16 Q1015
01:50
V
19 °C 10 km+ - 010° 010° 4 kt METAR LIMJ 282350Z 01004KT CAVOK 19/16 Q1015
01:20
V
19 °C 10 km+ - Var Var 1 kt METAR LIMJ 282320Z VRB01KT CAVOK 19/16 Q1015
00:50
V
19 °C 10 km+ - 040° 040° 3 kt METAR LIMJ 282250Z 04003KT CAVOK 19/16 Q1015
00:20
V
19 °C 10 km+ - 060° 060° 2 kt METAR LIMJ 282220Z 06002KT CAVOK 19/16 Q1015

28 mai 2024

Temps Code Temps Temp. Vue Base cloud Vent METAR/SPECI
23:50
V
20 °C 10 km+ - Var Var 2 kt METAR LIMJ 282150Z VRB02KT CAVOK 20/16 Q1015
23:20
V
20 °C 10 km+ - 030° 030° 3 kt METAR LIMJ 282120Z 03003KT 310V060 CAVOK 20/16 Q1015
22:50
V
20 °C 10 km+ - 040° 040° 4 kt METAR LIMJ 282050Z 04004KT CAVOK 20/16 Q1015
22:20
V
20 °C 10 km+ - 330° 330° 3 kt METAR LIMJ 282020Z 33003KT CAVOK 20/16 Q1014
21:50
V
20 °C 10 km+ - 290° 290° 3 kt METAR LIMJ 281950Z 29003KT CAVOK 20/16 Q1014
21:20
V
20 °C 10 km+ - Var Var 2 kt METAR LIMJ 281920Z VRB02KT CAVOK 20/16 Q1014
20:50
V
21 °C 10 km+ - 250° 250° 2 kt METAR LIMJ 281850Z 25002KT 9999 FEW025 21/16 Q1014
20:20
V
21 °C 10 km+ - 230° 230° 3 kt METAR LIMJ 281820Z 23003KT 180V260 9999 FEW025 21/16 Q1014
19:50
V
21 °C 10 km+ - 210° 210° 3 kt METAR LIMJ 281750Z 21003KT 9999 FEW025 21/16 Q1014
19:20
V
21 °C 10 km+ - 220° 220° 3 kt METAR LIMJ 281720Z 22003KT 190V250 9999 FEW025 21/16 Q1014
18:50
V
21 °C 10 km+ - 200° 200° 4 kt METAR LIMJ 281650Z 20004KT 9999 FEW027 21/16 Q1014
18:20
V
21 °C 10 km+ - 210° 210° 4 kt METAR LIMJ 281620Z 21004KT 9999 FEW027 21/17 Q1014
17:50
V
21 °C 10 km+ - 210° 210° 4 kt METAR LIMJ 281550Z 21004KT 9999 FEW040 21/17 Q1014
17:20
V
21 °C 10 km+ - 220° 220° 4 kt METAR LIMJ 281520Z 22004KT 190V250 9999 FEW040 21/17 Q1014
16:50
V
21 °C 10 km+ - 200° 200° 4 kt METAR LIMJ 281450Z 20004KT 9999 FEW030 FEW032CB 21/17 Q1014
16:20
V
21 °C 10 km+ - 190° 190° 4 kt METAR LIMJ 281420Z 19004KT 9999 FEW030 21/16 Q1014
15:50
V
21 °C 10 km+ - 180° 180° 4 kt METAR LIMJ 281350Z 18004KT 9999 FEW030 21/17 Q1014
15:20
V
21 °C 10 km+ - 170° 170° 4 kt METAR LIMJ 281320Z 17004KT 9999 FEW030 21/16 Q1014
14:50
V
21 °C 10 km+ - 190° 190° 4 kt METAR LIMJ 281250Z 19004KT 160V240 9999 FEW028 21/16 Q1014
14:20
V
21 °C 10 km+ - 190° 190° 4 kt METAR LIMJ 281220Z 19004KT 150V230 9999 FEW027 21/16 Q1015
13:50
V
21 °C 10 km+ - 200° 200° 4 kt METAR LIMJ 281150Z 20004KT 9999 FEW028 21/16 Q1015
13:20
V
21 °C 10 km+ - 190° 190° 4 kt METAR LIMJ 281120Z 19004KT 9999 FEW025 21/16 Q1015
12:50
V
20 °C 10 km+ - 190° 190° 4 kt METAR LIMJ 281050Z 19004KT 9999 FEW025 20/16 Q1015
12:20
V
20 °C 10 km+ - 190° 190° 4 kt METAR LIMJ 281020Z 19004KT 9999 SCT025 20/16 Q1015
11:50
V
20 °C 10 km+ - 180° 180° 5 kt METAR LIMJ 280950Z 18005KT 9999 SCT025 20/16 Q1015
11:20
V
20 °C 10 km+ - 170° 170° 4 kt METAR LIMJ 280920Z 17004KT 9999 SCT025 20/16 Q1015
10:50
V
20 °C 10 km+ - 230° 230° 4 kt METAR LIMJ 280850Z 23004KT 9999 SCT025 20/16 Q1015
10:20
V
20 °C 10 km+ - 220° 220° 4 kt METAR LIMJ 280820Z 22004KT 9999 SCT028 20/17 Q1015
09:50
V
20 °C 10 km+ - 160° 160° 4 kt METAR LIMJ 280750Z 16004KT 9999 FEW030 20/16 Q1015
09:20
V
20 °C 10 km+ - 150° 150° 4 kt METAR LIMJ 280720Z 15004KT 9999 FEW030 20/16 Q1015
08:50
V
21 °C 10 km+ - 060° 060° 4 kt METAR LIMJ 280650Z 06004KT 010V140 CAVOK 21/15 Q1015
08:20
V
20 °C 10 km+ - 060° 060° 5 kt METAR LIMJ 280620Z 06005KT 360V090 CAVOK 20/15 Q1015
07:50
V
19 °C 10 km+ - 080° 080° 4 kt METAR LIMJ 280550Z 08004KT 020V100 CAVOK 19/15 Q1015
Signaler les modifications